Terminal Aerodrome Forecast
Issued by NWS

Home | Current Version | Previous Version | Text Only | Print | Product List | Glossary On
Versions: 1 2 3 4 5 6 7 8 9 10 11 12 13 14 15 16 17 18 19
772
FTUS43 KGRR 221006 AAD
TAFJXN
TAF AMD
KJXN 221006Z 2210/2306 22008KT 6SM BR BKN035
     FM221400 23012G24KT P6SM SCT035
     FM230000 20008KT P6SM SCT090=

USA.gov is the U.S. government's official web portal to all federal, state and local government web resources and services.